Round Pond, Arkansas
Current Conditions -  °F | °C
As of 9:53 PM on Saturday 24 Jan 2015 (Local Time) from KAWM Reporting Station
Clear Clear  
Wind Chill: 34°   Ceiling: Unl
Heat Index: 39°   Visibility: 10mi
Dew Point: 34°   Wind: 7mph
Humidity: 82%   Direction: 190°S
Pressure: 29.9"   Gusts: NA
Location:  35.08°N, 90.5845°W
Report Text: KAWM 250353Z AUTO 19006KT 10SM CLR 04/01 A2990 RMK AO2 SLP128 T00390011 $
Loading
Personal Weather Stations






























Interactive Weather Map New forecast layout! Learn more

10-Day Weather Forecast

Advertisements
Track Severe Weather on mobile